sensor_id;sensor_type;location;lat;lon;timestamp;pressure;altitude;pressure_sealevel;temperature;humidity
29371;BME280;16357;52.188;7.838;2024-01-10T00:00:40;102530.19;;;-3.76;50.25
29371;BME280;16357;52.188;7.838;2024-01-10T00:03:07;102525.81;;;-3.77;50.88
29371;BME280;16357;52.188;7.838;2024-01-10T00:05:33;102531.06;;;-3.77;50.44
29371;BME280;16357;52.188;7.838;2024-01-10T00:08:00;102526.72;;;-3.78;50.66
29371;BME280;16357;52.188;7.838;2024-01-10T00:10:26;102524.09;;;-3.78;50.45
29371;BME280;16357;52.188;7.838;2024-01-10T00:12:53;102522.34;;;-3.79;50.33
29371;BME280;16357;52.188;7.838;2024-01-10T00:15:19;102522.34;;;-3.79;50.34
29371;BME280;16357;52.188;7.838;2024-01-10T00:17:46;102518.00;;;-3.80;50.23
29371;BME280;16357;52.188;7.838;2024-01-10T00:20:12;102508.41;;;-3.81;50.19
29371;BME280;16357;52.188;7.838;2024-01-10T00:22:39;102498.78;;;-3.82;50.74
29371;BME280;16357;52.188;7.838;2024-01-10T00:25:06;102499.69;;;-3.83;51.17
29371;BME280;16357;52.188;7.838;2024-01-10T00:27:32;102495.34;;;-3.84;50.48
29371;BME280;16357;52.188;7.838;2024-01-10T00:29:59;102495.34;;;-3.84;50.52
29371;BME280;16357;52.188;7.838;2024-01-10T00:32:25;102494.44;;;-3.85;50.88
29371;BME280;16357;52.188;7.838;2024-01-10T00:34:52;102488.34;;;-3.85;50.47
29371;BME280;16357;52.188;7.838;2024-01-10T00:37:19;102488.41;;;-3.88;50.76
29371;BME280;16357;52.188;7.838;2024-01-10T00:39:45;102487.50;;;-3.87;51.40
29371;BME280;16357;52.188;7.838;2024-01-10T00:42:12;102482.31;;;-3.90;50.60
29371;BME280;16357;52.188;7.838;2024-01-10T00:44:38;102477.06;;;-3.90;50.63
29371;BME280;16357;52.188;7.838;2024-01-10T00:47:05;102478.81;;;-3.92;50.54
29371;BME280;16357;52.188;7.838;2024-01-10T00:49:32;102482.34;;;-3.93;50.50
29371;BME280;16357;52.188;7.838;2024-01-10T00:51:59;102478.00;;;-3.94;51.18
29371;BME280;16357;52.188;7.838;2024-01-10T00:54:25;102481.50;;;-3.95;50.65
29371;BME280;16357;52.188;7.838;2024-01-10T00:56:52;102479.78;;;-3.97;50.89
29371;BME280;16357;52.188;7.838;2024-01-10T00:59:18;102484.16;;;-3.97;50.97
29371;BME280;16357;52.188;7.838;2024-01-10T01:01:45;102479.78;;;-3.98;50.91
29371;BME280;16357;52.188;7.838;2024-01-10T01:04:11;102473.69;;;-3.99;51.21
29371;BME280;16357;52.188;7.838;2024-01-10T01:06:38;102475.44;;;-4.01;51.33
29371;BME280;16357;52.188;7.838;2024-01-10T01:09:04;102475.44;;;-4.01;50.75
29371;BME280;16357;52.188;7.838;2024-01-10T01:11:31;102474.59;;;-4.01;50.70
29371;BME280;16357;52.188;7.838;2024-01-10T01:13:57;102472.00;;;-4.03;51.24
29371;BME280;16357;52.188;7.838;2024-01-10T01:16:24;102460.63;;;-4.03;51.09
29371;BME280;16357;52.188;7.838;2024-01-10T01:18:51;102464.16;;;-4.04;50.72
29371;BME280;16357;52.188;7.838;2024-01-10T01:21:17;102459.81;;;-4.05;51.21
29371;BME280;16357;52.188;7.838;2024-01-10T01:23:44;102451.94;;;-4.05;50.70
29371;BME280;16357;52.188;7.838;2024-01-10T01:26:10;102458.91;;;-4.06;50.82
29371;BME280;16357;52.188;7.838;2024-01-10T01:28:39;102452.81;;;-4.06;50.71
29371;BME280;16357;52.188;7.838;2024-01-10T01:31:05;102462.44;;;-4.05;50.67
29371;BME280;16357;52.188;7.838;2024-01-10T01:33:33;102452.81;;;-4.05;51.37
29371;BME280;16357;52.188;7.838;2024-01-10T01:36:00;102449.28;;;-4.04;51.30
29371;BME280;16357;52.188;7.838;2024-01-10T01:38:27;102444.03;;;-4.04;51.32
29371;BME280;16357;52.188;7.838;2024-01-10T01:40:53;102449.28;;;-4.02;50.64
29371;BME280;16357;52.188;7.838;2024-01-10T01:43:21;102444.91;;;-4.03;51.17
29371;BME280;16357;52.188;7.838;2024-01-10T01:45:52;102441.41;;;-4.02;51.14
29371;BME280;16357;52.188;7.838;2024-01-10T01:48:20;102446.66;;;-4.04;50.29
29371;BME280;16357;52.188;7.838;2024-01-10T01:50:50;102444.03;;;-4.04;51.02
29371;BME280;16357;52.188;7.838;2024-01-10T01:53:18;102441.47;;;-4.05;50.30
29371;BME280;16357;52.188;7.838;2024-01-10T01:55:46;102447.56;;;-4.05;51.16
29371;BME280;16357;52.188;7.838;2024-01-10T01:58:13;102445.81;;;-4.06;50.90
29371;BME280;16357;52.188;7.838;2024-01-10T02:00:40;102443.19;;;-4.04;51.03
29371;BME280;16357;52.188;7.838;2024-01-10T02:03:10;102428.34;;;-4.07;50.86
29371;BME280;16357;52.188;7.838;2024-01-10T02:05:37;102438.84;;;-4.07;51.03
29371;BME280;16357;52.188;7.838;2024-01-10T02:08:04;102433.59;;;-4.07;50.85
29371;BME280;16357;52.188;7.838;2024-01-10T02:10:31;102432.75;;;-4.07;51.47
29371;BME280;16357;52.188;7.838;2024-01-10T02:12:58;102431.88;;;-4.08;51.20
29371;BME280;16357;52.188;7.838;2024-01-10T02:15:25;102437.13;;;-4.09;51.53
29371;BME280;16357;52.188;7.838;2024-01-10T02:17:51;102430.13;;;-4.09;51.03
29371;BME280;16357;52.188;7.838;2024-01-10T02:20:18;102427.53;;;-4.10;51.56
29371;BME280;16357;52.188;7.838;2024-01-10T02:22:45;102420.56;;;-4.11;51.33
29371;BME280;16357;52.188;7.838;2024-01-10T02:25:13;102424.94;;;-4.12;51.58
29371;BME280;16357;52.188;7.838;2024-01-10T02:27:40;102428.44;;;-4.13;51.40
29371;BME280;16357;52.188;7.838;2024-01-10T02:30:08;102421.47;;;-4.14;51.61
29371;BME280;16357;52.188;7.838;2024-01-10T02:32:35;102424.13;;;-4.15;51.10
29371;BME280;16357;52.188;7.838;2024-01-10T02:35:03;102426.75;;;-4.17;51.75
29371;BME280;16357;52.188;7.838;2024-01-10T02:37:30;102428.50;;;-4.19;51.15
29371;BME280;16357;52.188;7.838;2024-01-10T02:39:57;102425.03;;;-4.20;51.07
29371;BME280;16357;52.188;7.838;2024-01-10T02:42:23;102423.31;;;-4.22;50.80
29371;BME280;16357;52.188;7.838;2024-01-10T02:44:50;102417.22;;;-4.23;51.93
29371;BME280;16357;52.188;7.838;2024-01-10T02:47:16;102425.97;;;-4.24;51.70
29371;BME280;16357;52.188;7.838;2024-01-10T02:49:43;102425.97;;;-4.25;51.28
29371;BME280;16357;52.188;7.838;2024-01-10T02:52:10;102428.59;;;-4.25;51.75
29371;BME280;16357;52.188;7.838;2024-01-10T02:54:36;102438.22;;;-4.27;51.58
29371;BME280;16357;52.188;7.838;2024-01-10T02:57:03;102433.88;;;-4.28;51.75
29371;BME280;16357;52.188;7.838;2024-01-10T02:59:30;102433.03;;;-4.30;51.93
29371;BME280;16357;52.188;7.838;2024-01-10T03:01:56;102430.47;;;-4.33;51.58
29371;BME280;16357;52.188;7.838;2024-01-10T03:04:23;102431.34;;;-4.34;52.35
29371;BME280;16357;52.188;7.838;2024-01-10T03:06:49;102433.13;;;-4.36;51.94
29371;BME280;16357;52.188;7.838;2024-01-10T03:09:16;102439.22;;;-4.37;51.77
29371;BME280;16357;52.188;7.838;2024-01-10T03:11:42;102431.41;;;-4.39;51.58
29371;BME280;16357;52.188;7.838;2024-01-10T03:14:10;102436.66;;;-4.41;52.05
29371;BME280;16357;52.188;7.838;2024-01-10T03:16:37;102433.16;;;-4.41;51.53
29371;BME280;16357;52.188;7.838;2024-01-10T03:19:04;102434.06;;;-4.42;52.34
29371;BME280;16357;52.188;7.838;2024-01-10T03:21:31;102433.16;;;-4.41;52.41
29371;BME280;16357;52.188;7.838;2024-01-10T03:23:59;102427.94;;;-4.43;52.14
29371;BME280;16357;52.188;7.838;2024-01-10T03:26:27;102427.94;;;-4.43;52.15
29371;BME280;16357;52.188;7.838;2024-01-10T03:28:54;102425.31;;;-4.43;51.91
29371;BME280;16357;52.188;7.838;2024-01-10T03:31:20;102426.22;;;-4.45;51.71
29371;BME280;16357;52.188;7.838;2024-01-10T03:33:47;102425.38;;;-4.46;52.09
29371;BME280;16357;52.188;7.838;2024-01-10T03:36:17;102426.25;;;-4.47;52.15
29371;BME280;16357;52.188;7.838;2024-01-10T03:38:44;102422.78;;;-4.49;52.29
29371;BME280;16357;52.188;7.838;2024-01-10T03:41:14;102419.31;;;-4.51;52.11
29371;BME280;16357;52.188;7.838;2024-01-10T03:43:42;102420.22;;;-4.52;52.04
29371;BME280;16357;52.188;7.838;2024-01-10T03:46:09;102418.50;;;-4.53;51.83
29371;BME280;16357;52.188;7.838;2024-01-10T03:48:36;102415.88;;;-4.56;52.39
29371;BME280;16357;52.188;7.838;2024-01-10T03:51:03;102412.44;;;-4.58;52.18
29371;BME280;16357;52.188;7.838;2024-01-10T03:53:30;102416.81;;;-4.60;52.45
29371;BME280;16357;52.188;7.838;2024-01-10T03:55:57;102405.47;;;-4.60;52.31
29371;BME280;16357;52.188;7.838;2024-01-10T03:58:23;102406.38;;;-4.63;52.09
29371;BME280;16357;52.188;7.838;2024-01-10T04:00:50;102408.16;;;-4.65;52.85
29371;BME280;16357;52.188;7.838;2024-01-10T04:03:16;102411.63;;;-4.66;52.78
29371;BME280;16357;52.188;7.838;2024-01-10T04:05:43;102405.56;;;-4.70;52.52
29371;BME280;16357;52.188;7.838;2024-01-10T04:08:10;102409.94;;;-4.70;52.76
29371;BME280;16357;52.188;7.838;2024-01-10T04:10:36;102417.81;;;-4.72;52.74
29371;BME280;16357;52.188;7.838;2024-01-10T04:13:03;102420.47;;;-4.73;53.12
29371;BME280;16357;52.188;7.838;2024-01-10T04:15:30;102410.00;;;-4.73;53.33
29371;BME280;16357;52.188;7.838;2024-01-10T04:17:56;102418.72;;;-4.74;52.80
29371;BME280;16357;52.188;7.838;2024-01-10T04:20:23;102412.63;;;-4.75;53.16
29371;BME280;16357;52.188;7.838;2024-01-10T04:22:50;102410.00;;;-4.75;52.96
29371;BME280;16357;52.188;7.838;2024-01-10T04:25:16;102405.66;;;-4.76;52.83
29371;BME280;16357;52.188;7.838;2024-01-10T04:27:43;102401.28;;;-4.77;53.31
29371;BME280;16357;52.188;7.838;2024-01-10T04:30:10;102396.06;;;-4.77;53.15
29371;BME280;16357;52.188;7.838;2024-01-10T04:32:36;102396.06;;;-4.77;53.65
29371;BME280;16357;52.188;7.838;2024-01-10T04:35:03;102403.91;;;-4.77;53.35
29371;BME280;16357;52.188;7.838;2024-01-10T04:37:30;102392.56;;;-4.77;52.95
29371;BME280;16357;52.188;7.838;2024-01-10T04:39:57;102393.47;;;-4.78;53.41
29371;BME280;16357;52.188;7.838;2024-01-10T04:42:23;102395.22;;;-4.79;53.67
29371;BME280;16357;52.188;7.838;2024-01-10T04:44:50;102394.34;;;-4.79;53.58
29371;BME280;16357;52.188;7.838;2024-01-10T04:47:16;102393.50;;;-4.81;53.04
29371;BME280;16357;52.188;7.838;2024-01-10T04:49:43;102397.84;;;-4.82;53.29
29371;BME280;16357;52.188;7.838;2024-01-10T04:52:09;102401.38;;;-4.81;53.15
29371;BME280;16357;52.188;7.838;2024-01-10T04:54:36;102395.22;;;-4.82;53.00
29371;BME280;16357;52.188;7.838;2024-01-10T04:57:02;102403.97;;;-4.83;52.82
29371;BME280;16357;52.188;7.838;2024-01-10T04:59:29;102386.56;;;-4.84;53.04
29371;BME280;16357;52.188;7.838;2024-01-10T05:01:56;102381.31;;;-4.86;53.66
29371;BME280;16357;52.188;7.838;2024-01-10T05:04:22;102366.53;;;-4.87;53.69
29371;BME280;16357;52.188;7.838;2024-01-10T05:06:49;102372.63;;;-4.86;53.26
29371;BME280;16357;52.188;7.838;2024-01-10T05:09:15;102369.13;;;-4.87;53.15
29371;BME280;16357;52.188;7.838;2024-01-10T05:11:42;102363.91;;;-4.87;53.26
29371;BME280;16357;52.188;7.838;2024-01-10T05:14:10;102366.53;;;-4.87;53.69
29371;BME280;16357;52.188;7.838;2024-01-10T05:16:37;102366.53;;;-4.87;53.57
29371;BME280;16357;52.188;7.838;2024-01-10T05:19:03;102370.84;;;-4.87;53.45
29371;BME280;16357;52.188;7.838;2024-01-10T05:21:33;102376.94;;;-4.85;53.55
29371;BME280;16357;52.188;7.838;2024-01-10T05:24:00;102381.31;;;-4.86;53.59
29371;BME280;16357;52.188;7.838;2024-01-10T05:26:26;102378.72;;;-4.86;53.40
29371;BME280;16357;52.188;7.838;2024-01-10T05:28:53;102375.22;;;-4.86;53.41
29371;BME280;16357;52.188;7.838;2024-01-10T05:31:19;102371.75;;;-4.87;53.40
29371;BME280;16357;52.188;7.838;2024-01-10T05:33:46;102370.00;;;-4.88;53.32
29371;BME280;16357;52.188;7.838;2024-01-10T05:36:12;102368.28;;;-4.89;53.71
29371;BME280;16357;52.188;7.838;2024-01-10T05:38:39;102372.63;;;-4.88;53.73
29371;BME280;16357;52.188;7.838;2024-01-10T05:41:08;102363.91;;;-4.88;53.41
29371;BME280;16357;52.188;7.838;2024-01-10T05:43:35;102361.31;;;-4.90;53.36
29371;BME280;16357;52.188;7.838;2024-01-10T05:46:03;102365.66;;;-4.90;53.02
29371;BME280;16357;52.188;7.838;2024-01-10T05:48:31;102366.56;;;-4.90;53.39
29371;BME280;16357;52.188;7.838;2024-01-10T05:50:58;102363.06;;;-4.90;53.91
29371;BME280;16357;52.188;7.838;2024-01-10T05:53:25;102370.03;;;-4.91;53.15
29371;BME280;16357;52.188;7.838;2024-01-10T05:55:52;102370.91;;;-4.90;53.07
29371;BME280;16357;52.188;7.838;2024-01-10T05:58:19;102367.44;;;-4.91;53.33
29371;BME280;16357;52.188;7.838;2024-01-10T06:00:47;102373.56;;;-4.92;52.54
29371;BME280;16357;52.188;7.838;2024-01-10T06:03:13;102372.69;;;-4.92;53.25
29371;BME280;16357;52.188;7.838;2024-01-10T06:05:40;102376.16;;;-4.92;53.36
29371;BME280;16357;52.188;7.838;2024-01-10T06:08:07;102372.69;;;-4.94;52.95
29371;BME280;16357;52.188;7.838;2024-01-10T06:10:34;102373.56;;;-4.93;52.78
29371;BME280;16357;52.188;7.838;2024-01-10T06:13:03;102373.59;;;-4.95;53.42
29371;BME280;16357;52.188;7.838;2024-01-10T06:15:30;102380.59;;;-4.97;53.09
29371;BME280;16357;52.188;7.838;2024-01-10T06:17:56;102374.47;;;-4.96;53.49
29371;BME280;16357;52.188;7.838;2024-01-10T06:20:23;102372.69;;;-4.95;52.79
29371;BME280;16357;52.188;7.838;2024-01-10T06:22:50;102372.69;;;-4.95;53.59
29371;BME280;16357;52.188;7.838;2024-01-10T06:25:17;102377.06;;;-4.96;52.97
29371;BME280;16357;52.188;7.838;2024-01-10T06:27:43;102367.50;;;-4.97;53.10
29371;BME280;16357;52.188;7.838;2024-01-10T06:30:10;102370.13;;;-4.97;53.57
29371;BME280;16357;52.188;7.838;2024-01-10T06:32:37;102373.59;;;-4.98;53.61
29371;BME280;16357;52.188;7.838;2024-01-10T06:35:04;102373.59;;;-4.98;52.88
29371;BME280;16357;52.188;7.838;2024-01-10T06:37:31;102377.97;;;-4.98;53.29
29371;BME280;16357;52.188;7.838;2024-01-10T06:40:00;102368.38;;;-4.98;53.16
29371;BME280;16357;52.188;7.838;2024-01-10T06:42:27;102357.03;;;-4.98;53.30
29371;BME280;16357;52.188;7.838;2024-01-10T06:44:53;102363.16;;;-4.99;53.77
29371;BME280;16357;52.188;7.838;2024-01-10T06:47:20;102384.97;;;-4.99;53.48
29371;BME280;16357;52.188;7.838;2024-01-10T06:49:47;102372.78;;;-5.00;53.44
29371;BME280;16357;52.188;7.838;2024-01-10T06:52:14;102372.78;;;-5.00;52.97
29371;BME280;16357;52.188;7.838;2024-01-10T06:54:41;102384.09;;;-4.99;53.56
29371;BME280;16357;52.188;7.838;2024-01-10T06:57:07;102382.34;;;-5.00;53.53
29371;BME280;16357;52.188;7.838;2024-01-10T06:59:34;102386.72;;;-5.01;53.21
29371;BME280;16357;52.188;7.838;2024-01-10T07:02:00;102384.09;;;-5.01;52.98
29371;BME280;16357;52.188;7.838;2024-01-10T07:04:28;102381.53;;;-5.02;53.96
29371;BME280;16357;52.188;7.838;2024-01-10T07:06:54;102371.06;;;-5.02;52.94
29371;BME280;16357;52.188;7.838;2024-01-10T07:09:21;102378.91;;;-5.04;53.62
29371;BME280;16357;52.188;7.838;2024-01-10T07:11:48;102377.19;;;-5.05;53.36
29371;BME280;16357;52.188;7.838;2024-01-10T07:14:15;102385.03;;;-5.05;53.22
29371;BME280;16357;52.188;7.838;2024-01-10T07:16:42;102387.63;;;-5.03;52.84
29371;BME280;16357;52.188;7.838;2024-01-10T07:19:12;102391.13;;;-5.06;53.10
29371;BME280;16357;52.188;7.838;2024-01-10T07:21:40;102392.00;;;-5.05;53.65
29371;BME280;16357;52.188;7.838;2024-01-10T07:24:08;102392.88;;;-5.05;53.88
29371;BME280;16357;52.188;7.838;2024-01-10T07:26:38;102398.13;;;-5.05;53.79
29371;BME280;16357;52.188;7.838;2024-01-10T07:29:04;102401.59;;;-5.04;53.71
29371;BME280;16357;52.188;7.838;2024-01-10T07:31:35;102404.22;;;-5.04;53.31
29371;BME280;16357;52.188;7.838;2024-01-10T07:34:02;102408.59;;;-5.05;53.49
29371;BME280;16357;52.188;7.838;2024-01-10T07:36:32;102409.44;;;-5.04;53.86
29371;BME280;16357;52.188;7.838;2024-01-10T07:39:00;102417.31;;;-5.04;53.29
29371;BME280;16357;52.188;7.838;2024-01-10T07:41:30;102413.81;;;-5.05;53.21
29371;BME280;16357;52.188;7.838;2024-01-10T07:43:56;102421.63;;;-5.03;53.60
29371;BME280;16357;52.188;7.838;2024-01-10T07:46:23;102430.38;;;-5.04;53.99
29371;BME280;16357;52.188;7.838;2024-01-10T07:48:50;102423.38;;;-5.02;53.53
29371;BME280;16357;52.188;7.838;2024-01-10T07:51:16;102419.88;;;-5.01;53.29
29371;BME280;16357;52.188;7.838;2024-01-10T07:53:43;102422.50;;;-5.00;53.77
29371;BME280;16357;52.188;7.838;2024-01-10T07:56:09;102418.13;;;-4.99;53.36
29371;BME280;16357;52.188;7.838;2024-01-10T07:58:38;102405.91;;;-4.99;53.78
29371;BME280;16357;52.188;7.838;2024-01-10T08:01:05;102409.38;;;-4.98;53.46
29371;BME280;16357;52.188;7.838;2024-01-10T08:03:31;102417.22;;;-4.98;53.44
29371;BME280;16357;52.188;7.838;2024-01-10T08:05:59;102418.09;;;-4.98;53.62
29371;BME280;16357;52.188;7.838;2024-01-10T08:08:26;102413.75;;;-4.97;54.18
29371;BME280;16357;52.188;7.838;2024-01-10T08:10:52;102409.34;;;-4.95;53.71
29371;BME280;16357;52.188;7.838;2024-01-10T08:13:19;102409.34;;;-4.94;53.92
29371;BME280;16357;52.188;7.838;2024-01-10T08:15:45;102403.22;;;-4.93;53.58
29371;BME280;16357;52.188;7.838;2024-01-10T08:18:12;102404.06;;;-4.91;54.24
29371;BME280;16357;52.188;7.838;2024-01-10T08:20:40;102400.53;;;-4.88;53.92
29371;BME280;16357;52.188;7.838;2024-01-10T08:23:07;102398.78;;;-4.86;53.41
29371;BME280;16357;52.188;7.838;2024-01-10T08:25:34;102395.28;;;-4.83;54.23
29371;BME280;16357;52.188;7.838;2024-01-10T08:28:01;102397.00;;;-4.81;53.95
29371;BME280;16357;52.188;7.838;2024-01-10T08:30:27;102398.72;;;-4.78;53.70
29371;BME280;16357;52.188;7.838;2024-01-10T08:32:54;102401.25;;;-4.72;53.91
29371;BME280;16357;52.188;7.838;2024-01-10T08:35:21;102396.88;;;-4.70;53.95
29371;BME280;16357;52.188;7.838;2024-01-10T08:37:53;102394.19;;;-4.67;53.70
29371;BME280;16357;52.188;7.838;2024-01-10T08:40:19;102390.69;;;-4.63;54.33
29371;BME280;16357;52.188;7.838;2024-01-10T08:42:47;102391.50;;;-4.61;53.65
29371;BME280;16357;52.188;7.838;2024-01-10T08:45:14;102394.09;;;-4.58;53.79
29371;BME280;16357;52.188;7.838;2024-01-10T08:47:41;102387.94;;;-4.54;54.04
29371;BME280;16357;52.188;7.838;2024-01-10T08:50:08;102381.78;;;-4.51;53.81
29371;BME280;16357;52.188;7.838;2024-01-10T08:52:35;102381.75;;;-4.47;53.58
29371;BME280;16357;52.188;7.838;2024-01-10T08:55:06;102379.94;;;-4.43;53.16
29371;BME280;16357;52.188;7.838;2024-01-10T08:57:37;102379.03;;;-4.39;53.39
29371;BME280;16357;52.188;7.838;2024-01-10T09:00:04;102390.31;;;-4.35;53.44
29371;BME280;16357;52.188;7.838;2024-01-10T09:02:32;102374.53;;;-4.31;53.88
29371;BME280;16357;52.188;7.838;2024-01-10T09:04:59;102374.47;;;-4.26;53.92
29371;BME280;16357;52.188;7.838;2024-01-10T09:07:26;102370.91;;;-4.22;53.56
29371;BME280;16357;52.188;7.838;2024-01-10T09:09:53;102369.09;;;-4.17;53.90
29371;BME280;16357;52.188;7.838;2024-01-10T09:12:20;102358.56;;;-4.12;53.22
29371;BME280;16357;52.188;7.838;2024-01-10T09:14:46;102357.59;;;-4.07;53.43
29371;BME280;16357;52.188;7.838;2024-01-10T09:17:13;102368.88;;;-4.02;52.73
29371;BME280;16357;52.188;7.838;2024-01-10T09:19:39;102362.69;;;-3.96;53.53
29371;BME280;16357;52.188;7.838;2024-01-10T09:22:06;102364.34;;;-3.90;53.48
29371;BME280;16357;52.188;7.838;2024-01-10T09:24:33;102373.84;;;-3.83;53.32
29371;BME280;16357;52.188;7.838;2024-01-10T09:27:01;102372.03;;;-3.78;53.38
29371;BME280;16357;52.188;7.838;2024-01-10T09:29:28;102369.28;;;-3.72;52.79
29371;BME280;16357;52.188;7.838;2024-01-10T09:31:54;102368.31;;;-3.65;53.24
29371;BME280;16357;52.188;7.838;2024-01-10T09:34:21;102369.97;;;-3.59;53.05
29371;BME280;16357;52.188;7.838;2024-01-10T09:36:48;102380.34;;;-3.53;52.98
29371;BME280;16357;52.188;7.838;2024-01-10T09:39:15;102376.72;;;-3.46;53.46
29371;BME280;16357;52.188;7.838;2024-01-10T09:41:47;102386.22;;;-3.39;53.37
29371;BME280;16357;52.188;7.838;2024-01-10T09:44:18;102382.66;;;-3.35;52.45
29371;BME280;16357;52.188;7.838;2024-01-10T09:46:49;102387.75;;;-3.27;52.39
29371;BME280;16357;52.188;7.838;2024-01-10T09:49:17;102380.66;;;-3.22;52.60
29371;BME280;16357;52.188;7.838;2024-01-10T09:51:47;102383.22;;;-3.16;53.04
29371;BME280;16357;52.188;7.838;2024-01-10T09:54:15;102395.31;;;-3.09;52.90
29371;BME280;16357;52.188;7.838;2024-01-10T09:56:42;102384.72;;;-3.02;52.23
29371;BME280;16357;52.188;7.838;2024-01-10T09:59:10;102386.34;;;-2.97;52.75
29371;BME280;16357;52.188;7.838;2024-01-10T10:01:37;102381.88;;;-2.92;52.62
29371;BME280;16357;52.188;7.838;2024-01-10T10:04:09;102375.63;;;-2.86;51.87
29371;BME280;16357;52.188;7.838;2024-01-10T10:06:38;102380.75;;;-2.80;52.53
29371;BME280;16357;52.188;7.838;2024-01-10T10:09:06;102380.66;;;-2.74;51.78
29371;BME280;16357;52.188;7.838;2024-01-10T10:11:33;102373.56;;;-2.70;52.29
29371;BME280;16357;52.188;7.838;2024-01-10T10:14:16;102368.22;;;-2.66;51.77
29371;BME280;16357;52.188;7.838;2024-01-10T10:16:43;102370.75;;;-2.61;52.05
29371;BME280;16357;52.188;7.838;2024-01-10T10:19:09;102368.06;;;-2.58;51.50
29371;BME280;16357;52.188;7.838;2024-01-10T10:21:39;102372.34;;;-2.54;51.61
29371;BME280;16357;52.188;7.838;2024-01-10T10:24:06;102363.53;;;-2.51;52.04
29371;BME280;16357;52.188;7.838;2024-01-10T10:26:34;102368.72;;;-2.47;51.56
29371;BME280;16357;52.188;7.838;2024-01-10T10:29:01;102360.72;;;-2.42;51.15
29371;BME280;16357;52.188;7.838;2024-01-10T10:31:29;102357.13;;;-2.38;51.65
29371;BME280;16357;52.188;7.838;2024-01-10T10:33:59;102356.97;;;-2.32;51.47
29371;BME280;16357;52.188;7.838;2024-01-10T10:36:26;102348.13;;;-2.26;51.52
29371;BME280;16357;52.188;7.838;2024-01-10T10:38:53;102351.47;;;-2.19;51.72
29371;BME280;16357;52.188;7.838;2024-01-10T10:41:19;102349.50;;;-2.11;51.09
29371;BME280;16357;52.188;7.838;2024-01-10T10:43:47;102348.50;;;-2.06;50.30
29371;BME280;16357;52.188;7.838;2024-01-10T10:46:16;102345.75;;;-2.00;50.58
29371;BME280;16357;52.188;7.838;2024-01-10T10:48:43;102352.63;;;-1.94;51.01
29371;BME280;16357;52.188;7.838;2024-01-10T10:51:11;102346.38;;;-1.90;50.22
29371;BME280;16357;52.188;7.838;2024-01-10T10:53:38;102350.69;;;-1.86;50.28
29371;BME280;16357;52.188;7.838;2024-01-10T10:56:07;102349.72;;;-1.82;50.07
29371;BME280;16357;52.188;7.838;2024-01-10T10:58:35;102353.97;;;-1.78;50.25
29371;BME280;16357;52.188;7.838;2024-01-10T11:01:04;102353.91;;;-1.74;50.10
29371;BME280;16357;52.188;7.838;2024-01-10T11:03:35;102345.94;;;-1.71;50.37
29371;BME280;16357;52.188;7.838;2024-01-10T11:06:03;102350.22;;;-1.67;50.21
29371;BME280;16357;52.188;7.838;2024-01-10T11:08:35;102346.63;;;-1.63;50.42
29371;BME280;16357;52.188;7.838;2024-01-10T11:11:05;102359.66;;;-1.59;50.30
29371;BME280;16357;52.188;7.838;2024-01-10T11:19:18;102352.31;;;-1.46;49.23
29371;BME280;16357;52.188;7.838;2024-01-10T11:24:36;102355.66;;;-1.39;49.92
29371;BME280;16357;52.188;7.838;2024-01-10T11:27:13;102354.63;;;-1.34;49.94
29371;BME280;16357;52.188;7.838;2024-01-10T11:29:41;102353.59;;;-1.28;50.29
29371;BME280;16357;52.188;7.838;2024-01-10T11:32:15;102342.97;;;-1.23;49.53
29371;BME280;16357;52.188;7.838;2024-01-10T11:34:55;102337.53;;;-1.17;49.51
29371;BME280;16357;52.188;7.838;2024-01-10T11:37:28;102343.53;;;-1.12;49.50
29371;BME280;16357;52.188;7.838;2024-01-10T11:40:07;102334.63;;;-1.08;49.27
29371;BME280;16357;52.188;7.838;2024-01-10T11:45:08;102337.84;;;-0.97;49.26
29371;BME280;16357;52.188;7.838;2024-01-10T11:47:38;102335.94;;;-0.92;48.89
29371;BME280;16357;52.188;7.838;2024-01-10T11:50:07;102330.50;;;-0.85;49.25
29371;BME280;16357;52.188;7.838;2024-01-10T11:52:36;102328.59;;;-0.80;49.40
29371;BME280;16357;52.188;7.838;2024-01-10T11:55:03;102324.97;;;-0.76;49.29
29371;BME280;16357;52.188;7.838;2024-01-10T11:57:33;102329.19;;;-0.71;49.15
29371;BME280;16357;52.188;7.838;2024-01-10T12:00:01;102328.19;;;-0.67;49.18
29371;BME280;16357;52.188;7.838;2024-01-10T12:02:29;102321.88;;;-0.61;48.77
29371;BME280;16357;52.188;7.838;2024-01-10T12:04:56;102323.47;;;-0.55;48.38
29371;BME280;16357;52.188;7.838;2024-01-10T12:07:23;102325.94;;;-0.51;48.23
29371;BME280;16357;52.188;7.838;2024-01-10T12:09:53;102310.03;;;-0.48;48.55
29371;BME280;16357;52.188;7.838;2024-01-10T12:12:21;102316.94;;;-0.42;48.67
29371;BME280;16357;52.188;7.838;2024-01-10T12:14:48;102316.75;;;-0.37;48.43
29371;BME280;16357;52.188;7.838;2024-01-10T12:17:14;102308.72;;;-0.33;48.28
29371;BME280;16357;52.188;7.838;2024-01-10T12:19:41;102307.66;;;-0.27;48.17
29371;BME280;16357;52.188;7.838;2024-01-10T12:22:12;102298.75;;;-0.23;48.25
29371;BME280;16357;52.188;7.838;2024-01-10T12:24:43;102302.09;;;-0.18;47.89
29371;BME280;16357;52.188;7.838;2024-01-10T12:27:11;102303.72;;;-0.14;47.91
29371;BME280;16357;52.188;7.838;2024-01-10T12:29:38;102291.31;;;-0.10;48.01
29371;BME280;16357;52.188;7.838;2024-01-10T12:32:05;102292.94;;;-0.06;47.68
29371;BME280;16357;52.188;7.838;2024-01-10T12:34:31;102295.44;;;-0.02;47.88
29371;BME280;16357;52.188;7.838;2024-01-10T12:36:58;102296.25;;;0.01;47.58
29371;BME280;16357;52.188;7.838;2024-01-10T12:39:25;102298.72;;;0.05;47.41
29371;BME280;16357;52.188;7.838;2024-01-10T12:41:57;102303.03;;;0.08;47.59
29371;BME280;16357;52.188;7.838;2024-01-10T12:44:28;102304.66;;;0.12;47.81
29371;BME280;16357;52.188;7.838;2024-01-10T12:46:56;102303.66;;;0.16;47.80
29371;BME280;16357;52.188;7.838;2024-01-10T12:49:23;102294.72;;;0.20;47.88
29371;BME280;16357;52.188;7.838;2024-01-10T12:51:50;102289.28;;;0.25;47.78
29371;BME280;16357;52.188;7.838;2024-01-10T12:54:16;102292.63;;;0.30;47.64
29371;BME280;16357;52.188;7.838;2024-01-10T12:56:46;102301.25;;;0.35;47.54
29371;BME280;16357;52.188;7.838;2024-01-10T12:59:12;102302.88;;;0.39;47.39
29371;BME280;16357;52.188;7.838;2024-01-10T13:01:39;102308.91;;;0.42;47.33